sensor_id;sensor_type;location;lat;lon;timestamp;P1;durP1;ratioP1;P2;durP2;ratioP2
72573;SDS011;60603;52.548;13.420;2022-11-18T00:03:36;28.00;;;13.20;;
72573;SDS011;60603;52.548;13.420;2022-11-18T00:06:03;29.88;;;13.48;;
72573;SDS011;60603;52.548;13.420;2022-11-18T00:08:29;27.00;;;12.93;;
72573;SDS011;60603;52.548;13.420;2022-11-18T00:10:55;27.77;;;12.77;;
72573;SDS011;60603;52.548;13.420;2022-11-18T00:13:21;28.95;;;14.07;;
72573;SDS011;60603;52.548;13.420;2022-11-18T00:16:09;25.95;;;12.48;;
72573;SDS011;60603;52.548;13.420;2022-11-18T00:18:36;27.88;;;11.82;;
72573;SDS011;60603;52.548;13.420;2022-11-18T00:21:03;28.80;;;13.18;;
72573;SDS011;60603;52.548;13.420;2022-11-18T00:23:33;26.65;;;13.20;;
72573;SDS011;60603;52.548;13.420;2022-11-18T00:28:28;23.25;;;12.10;;
72573;SDS011;60603;52.548;13.420;2022-11-18T00:33:31;24.20;;;11.20;;
72573;SDS011;60603;52.548;13.420;2022-11-18T00:35:57;23.23;;;11.77;;
72573;SDS011;60603;52.548;13.420;2022-11-18T00:38:23;22.75;;;10.52;;
72573;SDS011;60603;52.548;13.420;2022-11-18T00:41:09;24.83;;;11.65;;
72573;SDS011;60603;52.548;13.420;2022-11-18T00:43:36;23.02;;;11.35;;
72573;SDS011;60603;52.548;13.420;2022-11-18T00:46:02;25.52;;;11.00;;
72573;SDS011;60603;52.548;13.420;2022-11-18T00:48:29;26.67;;;12.38;;
72573;SDS011;60603;52.548;13.420;2022-11-18T00:50:56;22.20;;;10.20;;
72573;SDS011;60603;52.548;13.420;2022-11-18T00:53:23;20.05;;;10.88;;
72573;SDS011;60603;52.548;13.420;2022-11-18T00:55:51;24.83;;;12.00;;
72573;SDS011;60603;52.548;13.420;2022-11-18T00:58:17;23.38;;;12.40;;
72573;SDS011;60603;52.548;13.420;2022-11-18T01:00:43;25.88;;;12.00;;
72573;SDS011;60603;52.548;13.420;2022-11-18T01:03:11;22.75;;;12.15;;
72573;SDS011;60603;52.548;13.420;2022-11-18T01:05:37;23.23;;;11.18;;
72573;SDS011;60603;52.548;13.420;2022-11-18T01:08:04;27.05;;;12.60;;
72573;SDS011;60603;52.548;13.420;2022-11-18T01:10:31;21.65;;;10.95;;
72573;SDS011;60603;52.548;13.420;2022-11-18T01:12:56;22.27;;;11.25;;
72573;SDS011;60603;52.548;13.420;2022-11-18T01:15:42;26.15;;;11.82;;
72573;SDS011;60603;52.548;13.420;2022-11-18T01:18:08;23.77;;;11.82;;
72573;SDS011;60603;52.548;13.420;2022-11-18T01:20:34;22.25;;;10.75;;
72573;SDS011;60603;52.548;13.420;2022-11-18T01:23:01;18.00;;;9.48;;
72573;SDS011;60603;52.548;13.420;2022-11-18T01:25:27;21.45;;;11.18;;
72573;SDS011;60603;52.548;13.420;2022-11-18T01:27:53;22.10;;;11.32;;
72573;SDS011;60603;52.548;13.420;2022-11-18T01:30:19;20.05;;;9.98;;
72573;SDS011;60603;52.548;13.420;2022-11-18T01:32:45;26.83;;;13.43;;
72573;SDS011;60603;52.548;13.420;2022-11-18T01:35:11;26.13;;;13.90;;
72573;SDS011;60603;52.548;13.420;2022-11-18T01:37:37;23.85;;;11.65;;
72573;SDS011;60603;52.548;13.420;2022-11-18T01:40:07;23.58;;;12.35;;
72573;SDS011;60603;52.548;13.420;2022-11-18T01:42:33;27.30;;;12.68;;
72573;SDS011;60603;52.548;13.420;2022-11-18T01:47:57;20.50;;;10.35;;
72573;SDS011;60603;52.548;13.420;2022-11-18T01:50:24;29.02;;;13.05;;
72573;SDS011;60603;52.548;13.420;2022-11-18T01:52:51;24.50;;;12.10;;
72573;SDS011;60603;52.548;13.420;2022-11-18T01:55:20;24.25;;;12.10;;
72573;SDS011;60603;52.548;13.420;2022-11-18T01:57:49;23.63;;;11.88;;
72573;SDS011;60603;52.548;13.420;2022-11-18T02:00:16;25.17;;;12.32;;
72573;SDS011;60603;52.548;13.420;2022-11-18T02:02:42;24.58;;;12.02;;
72573;SDS011;60603;52.548;13.420;2022-11-18T02:05:09;22.92;;;11.05;;
72573;SDS011;60603;52.548;13.420;2022-11-18T02:07:36;25.02;;;12.20;;
72573;SDS011;60603;52.548;13.420;2022-11-18T02:10:05;25.95;;;12.35;;
72573;SDS011;60603;52.548;13.420;2022-11-18T02:12:31;25.00;;;12.35;;
72573;SDS011;60603;52.548;13.420;2022-11-18T02:14:57;27.02;;;12.30;;
72573;SDS011;60603;52.548;13.420;2022-11-18T02:28:30;26.38;;;13.32;;
72573;SDS011;60603;52.548;13.420;2022-11-18T02:31:06;22.67;;;11.30;;
72573;SDS011;60603;52.548;13.420;2022-11-18T02:33:40;25.67;;;12.05;;
72573;SDS011;60603;52.548;13.420;2022-11-18T02:38:42;30.60;;;13.45;;
72573;SDS011;60603;52.548;13.420;2022-11-18T02:41:15;21.63;;;11.50;;
72573;SDS011;60603;52.548;13.420;2022-11-18T02:43:48;29.75;;;14.23;;
72573;SDS011;60603;52.548;13.420;2022-11-18T02:46:18;25.60;;;12.02;;
72573;SDS011;60603;52.548;13.420;2022-11-18T02:48:48;24.67;;;12.98;;
72573;SDS011;60603;52.548;13.420;2022-11-18T02:51:17;27.30;;;12.02;;
72573;SDS011;60603;52.548;13.420;2022-11-18T02:53:45;27.02;;;13.80;;
72573;SDS011;60603;52.548;13.420;2022-11-18T02:56:12;25.77;;;12.32;;
72573;SDS011;60603;52.548;13.420;2022-11-18T02:58:39;25.42;;;12.55;;
72573;SDS011;60603;52.548;13.420;2022-11-18T03:01:04;24.67;;;11.15;;
72573;SDS011;60603;52.548;13.420;2022-11-18T03:03:31;27.23;;;12.13;;
72573;SDS011;60603;52.548;13.420;2022-11-18T03:06:10;29.98;;;13.73;;
72573;SDS011;60603;52.548;13.420;2022-11-18T03:08:39;27.73;;;13.40;;
72573;SDS011;60603;52.548;13.420;2022-11-18T03:11:17;27.88;;;13.45;;
72573;SDS011;60603;52.548;13.420;2022-11-18T03:22:08;29.23;;;14.18;;
72573;SDS011;60603;52.548;13.420;2022-11-18T03:24:42;28.92;;;15.15;;
72573;SDS011;60603;52.548;13.420;2022-11-18T03:27:14;27.23;;;13.25;;
72573;SDS011;60603;52.548;13.420;2022-11-18T03:29:58;31.35;;;13.95;;
72573;SDS011;60603;52.548;13.420;2022-11-18T03:32:30;26.83;;;11.98;;
72573;SDS011;60603;52.548;13.420;2022-11-18T03:34:57;36.58;;;15.88;;
72573;SDS011;60603;52.548;13.420;2022-11-18T03:37:26;30.20;;;14.57;;
72573;SDS011;60603;52.548;13.420;2022-11-18T03:39:53;29.90;;;13.05;;
72573;SDS011;60603;52.548;13.420;2022-11-18T03:42:24;29.27;;;14.82;;
72573;SDS011;60603;52.548;13.420;2022-11-18T03:44:54;30.02;;;12.75;;
72573;SDS011;60603;52.548;13.420;2022-11-18T03:47:26;30.80;;;15.07;;
72573;SDS011;60603;52.548;13.420;2022-11-18T03:49:56;28.73;;;13.38;;
72573;SDS011;60603;52.548;13.420;2022-11-18T03:54:52;31.90;;;13.95;;
72573;SDS011;60603;52.548;13.420;2022-11-18T03:57:37;31.88;;;14.32;;
72573;SDS011;60603;52.548;13.420;2022-11-18T04:00:07;34.75;;;15.63;;
72573;SDS011;60603;52.548;13.420;2022-11-18T04:02:34;31.52;;;13.77;;
72573;SDS011;60603;52.548;13.420;2022-11-18T04:05:01;37.60;;;16.85;;
72573;SDS011;60603;52.548;13.420;2022-11-18T04:12:37;35.10;;;15.45;;
72573;SDS011;60603;52.548;13.420;2022-11-18T04:15:05;35.40;;;16.48;;
72573;SDS011;60603;52.548;13.420;2022-11-18T04:17:31;39.08;;;16.65;;
72573;SDS011;60603;52.548;13.420;2022-11-18T04:19:57;40.38;;;17.80;;
72573;SDS011;60603;52.548;13.420;2022-11-18T04:22:22;39.03;;;17.95;;
72573;SDS011;60603;52.548;13.420;2022-11-18T04:24:48;37.08;;;16.35;;
72573;SDS011;60603;52.548;13.420;2022-11-18T04:27:14;39.78;;;18.10;;
72573;SDS011;60603;52.548;13.420;2022-11-18T04:29:40;44.40;;;19.15;;
72573;SDS011;60603;52.548;13.420;2022-11-18T04:32:05;40.95;;;17.48;;
72573;SDS011;60603;52.548;13.420;2022-11-18T04:34:31;33.35;;;14.50;;
72573;SDS011;60603;52.548;13.420;2022-11-18T04:36:57;40.83;;;17.33;;
72573;SDS011;60603;52.548;13.420;2022-11-18T04:39:23;35.55;;;17.27;;
72573;SDS011;60603;52.548;13.420;2022-11-18T04:41:49;45.28;;;18.15;;
72573;SDS011;60603;52.548;13.420;2022-11-18T04:44:24;42.95;;;18.02;;
72573;SDS011;60603;52.548;13.420;2022-11-18T04:49:17;38.20;;;18.13;;
72573;SDS011;60603;52.548;13.420;2022-11-18T04:51:43;38.05;;;16.88;;
72573;SDS011;60603;52.548;13.420;2022-11-18T04:54:10;45.47;;;17.63;;
72573;SDS011;60603;52.548;13.420;2022-11-18T04:56:36;43.60;;;18.95;;
72573;SDS011;60603;52.548;13.420;2022-11-18T04:59:03;37.47;;;16.20;;
72573;SDS011;60603;52.548;13.420;2022-11-18T05:01:29;28.60;;;12.70;;
72573;SDS011;60603;52.548;13.420;2022-11-18T05:03:55;40.40;;;17.48;;
72573;SDS011;60603;52.548;13.420;2022-11-18T05:06:21;41.50;;;16.98;;
72573;SDS011;60603;52.548;13.420;2022-11-18T05:08:47;37.40;;;16.60;;
72573;SDS011;60603;52.548;13.420;2022-11-18T05:11:13;40.20;;;16.95;;
72573;SDS011;60603;52.548;13.420;2022-11-18T05:13:57;39.05;;;17.83;;
72573;SDS011;60603;52.548;13.420;2022-11-18T05:16:23;35.45;;;16.52;;
72573;SDS011;60603;52.548;13.420;2022-11-18T05:18:49;32.67;;;15.68;;
72573;SDS011;60603;52.548;13.420;2022-11-18T05:21:15;37.53;;;16.33;;
72573;SDS011;60603;52.548;13.420;2022-11-18T05:23:41;33.25;;;15.20;;
72573;SDS011;60603;52.548;13.420;2022-11-18T05:26:07;36.58;;;15.80;;
72573;SDS011;60603;52.548;13.420;2022-11-18T05:28:35;38.97;;;17.90;;
72573;SDS011;60603;52.548;13.420;2022-11-18T05:31:07;37.53;;;15.63;;
72573;SDS011;60603;52.548;13.420;2022-11-18T05:33:34;36.92;;;16.33;;
72573;SDS011;60603;52.548;13.420;2022-11-18T05:36:06;31.23;;;15.23;;
72573;SDS011;60603;52.548;13.420;2022-11-18T05:38:34;33.40;;;14.35;;
72573;SDS011;60603;52.548;13.420;2022-11-18T05:41:00;40.13;;;16.85;;
72573;SDS011;60603;52.548;13.420;2022-11-18T05:43:26;23.80;;;11.73;;
72573;SDS011;60603;52.548;13.420;2022-11-18T05:45:53;31.10;;;14.70;;
72573;SDS011;60603;52.548;13.420;2022-11-18T05:48:19;34.72;;;15.13;;
72573;SDS011;60603;52.548;13.420;2022-11-18T05:50:45;22.73;;;11.55;;
72573;SDS011;60603;52.548;13.420;2022-11-18T05:53:12;25.58;;;10.43;;
72573;SDS011;60603;52.548;13.420;2022-11-18T05:55:59;28.40;;;12.35;;
72573;SDS011;60603;52.548;13.420;2022-11-18T06:00:54;26.60;;;12.05;;
72573;SDS011;60603;52.548;13.420;2022-11-18T06:03:23;26.33;;;10.55;;
72573;SDS011;60603;52.548;13.420;2022-11-18T06:05:54;31.05;;;14.35;;
72573;SDS011;60603;52.548;13.420;2022-11-18T06:08:21;25.38;;;11.40;;
72573;SDS011;60603;52.548;13.420;2022-11-18T06:10:49;22.65;;;10.65;;
72573;SDS011;60603;52.548;13.420;2022-11-18T06:13:17;23.90;;;12.48;;
72573;SDS011;60603;52.548;13.420;2022-11-18T06:15:45;20.85;;;10.45;;
72573;SDS011;60603;52.548;13.420;2022-11-18T06:20:47;26.00;;;11.50;;
72573;SDS011;60603;52.548;13.420;2022-11-18T06:23:14;20.88;;;10.57;;
72573;SDS011;60603;52.548;13.420;2022-11-18T06:25:39;22.23;;;11.48;;
72573;SDS011;60603;52.548;13.420;2022-11-18T06:28:06;25.30;;;11.85;;
72573;SDS011;60603;52.548;13.420;2022-11-18T06:30:33;25.92;;;11.50;;
72573;SDS011;60603;52.548;13.420;2022-11-18T06:32:59;21.77;;;10.93;;
72573;SDS011;60603;52.548;13.420;2022-11-18T06:35:24;22.88;;;11.30;;
72573;SDS011;60603;52.548;13.420;2022-11-18T06:37:50;21.15;;;9.82;;
72573;SDS011;60603;52.548;13.420;2022-11-18T06:40:16;23.42;;;11.55;;
72573;SDS011;60603;52.548;13.420;2022-11-18T06:42:42;17.13;;;8.88;;
72573;SDS011;60603;52.548;13.420;2022-11-18T06:45:26;23.40;;;10.77;;
72573;SDS011;60603;52.548;13.420;2022-11-18T06:47:56;24.45;;;10.77;;
72573;SDS011;60603;52.548;13.420;2022-11-18T06:50:22;24.27;;;10.07;;
72573;SDS011;60603;52.548;13.420;2022-11-18T06:52:48;23.95;;;10.00;;
72573;SDS011;60603;52.548;13.420;2022-11-18T06:55:14;25.02;;;11.38;;
72573;SDS011;60603;52.548;13.420;2022-11-18T06:57:40;22.25;;;10.80;;
72573;SDS011;60603;52.548;13.420;2022-11-18T07:00:06;20.33;;;8.93;;
72573;SDS011;60603;52.548;13.420;2022-11-18T07:02:34;24.95;;;11.32;;
72573;SDS011;60603;52.548;13.420;2022-11-18T07:05:00;21.10;;;11.57;;
72573;SDS011;60603;52.548;13.420;2022-11-18T07:07:26;24.98;;;11.73;;
72573;SDS011;60603;52.548;13.420;2022-11-18T07:09:52;23.02;;;12.45;;
72573;SDS011;60603;52.548;13.420;2022-11-18T07:12:18;26.30;;;11.90;;
72573;SDS011;60603;52.548;13.420;2022-11-18T07:14:43;24.95;;;12.20;;
72573;SDS011;60603;52.548;13.420;2022-11-18T07:17:09;23.77;;;11.95;;
72573;SDS011;60603;52.548;13.420;2022-11-18T07:19:35;23.38;;;11.52;;
72573;SDS011;60603;52.548;13.420;2022-11-18T07:22:01;23.98;;;11.10;;
72573;SDS011;60603;52.548;13.420;2022-11-18T07:24:27;23.55;;;10.18;;
72573;SDS011;60603;52.548;13.420;2022-11-18T07:26:52;26.23;;;12.43;;
72573;SDS011;60603;52.548;13.420;2022-11-18T07:29:18;24.90;;;12.00;;
72573;SDS011;60603;52.548;13.420;2022-11-18T07:31:44;18.55;;;9.48;;
72573;SDS011;60603;52.548;13.420;2022-11-18T07:34:11;22.60;;;9.75;;
72573;SDS011;60603;52.548;13.420;2022-11-18T07:36:37;26.08;;;12.35;;
72573;SDS011;60603;52.548;13.420;2022-11-18T07:39:04;26.38;;;12.25;;
72573;SDS011;60603;52.548;13.420;2022-11-18T07:41:31;21.55;;;10.70;;
72573;SDS011;60603;52.548;13.420;2022-11-18T07:43:58;27.80;;;12.80;;
72573;SDS011;60603;52.548;13.420;2022-11-18T07:46:28;25.25;;;11.45;;
72573;SDS011;60603;52.548;13.420;2022-11-18T07:48:56;23.30;;;12.00;;
72573;SDS011;60603;52.548;13.420;2022-11-18T07:51:24;23.50;;;11.60;;
72573;SDS011;60603;52.548;13.420;2022-11-18T07:53:51;25.05;;;11.70;;
72573;SDS011;60603;52.548;13.420;2022-11-18T07:56:17;23.55;;;11.73;;
72573;SDS011;60603;52.548;13.420;2022-11-18T07:58:43;25.02;;;11.73;;
72573;SDS011;60603;52.548;13.420;2022-11-18T08:01:16;25.67;;;10.65;;
72573;SDS011;60603;52.548;13.420;2022-11-18T08:03:43;22.73;;;9.70;;
72573;SDS011;60603;52.548;13.420;2022-11-18T08:06:10;23.70;;;11.50;;
72573;SDS011;60603;52.548;13.420;2022-11-18T08:08:38;25.05;;;11.60;;
72573;SDS011;60603;52.548;13.420;2022-11-18T08:11:08;24.63;;;11.90;;
72573;SDS011;60603;52.548;13.420;2022-11-18T08:13:35;20.90;;;10.55;;
72573;SDS011;60603;52.548;13.420;2022-11-18T08:16:01;24.92;;;11.95;;
72573;SDS011;60603;52.548;13.420;2022-11-18T08:18:29;21.83;;;12.20;;
72573;SDS011;60603;52.548;13.420;2022-11-18T08:20:55;21.55;;;11.13;;
72573;SDS011;60603;52.548;13.420;2022-11-18T08:23:22;21.30;;;11.40;;
72573;SDS011;60603;52.548;13.420;2022-11-18T08:25:47;18.67;;;10.00;;
72573;SDS011;60603;52.548;13.420;2022-11-18T08:28:13;25.17;;;11.50;;
72573;SDS011;60603;52.548;13.420;2022-11-18T08:30:39;31.80;;;10.60;;
72573;SDS011;60603;52.548;13.420;2022-11-18T08:33:05;21.58;;;10.45;;
72573;SDS011;60603;52.548;13.420;2022-11-18T08:35:31;20.42;;;9.93;;
72573;SDS011;60603;52.548;13.420;2022-11-18T08:37:58;24.25;;;11.60;;
72573;SDS011;60603;52.548;13.420;2022-11-18T08:40:24;20.90;;;11.07;;
72573;SDS011;60603;52.548;13.420;2022-11-18T08:42:50;18.45;;;9.77;;
72573;SDS011;60603;52.548;13.420;2022-11-18T08:45:16;24.92;;;11.25;;
72573;SDS011;60603;52.548;13.420;2022-11-18T08:47:41;22.20;;;9.63;;
72573;SDS011;60603;52.548;13.420;2022-11-18T08:50:08;20.30;;;9.50;;
72573;SDS011;60603;52.548;13.420;2022-11-18T08:52:35;20.83;;;11.70;;
72573;SDS011;60603;52.548;13.420;2022-11-18T08:55:01;24.88;;;12.40;;
72573;SDS011;60603;52.548;13.420;2022-11-18T08:57:28;21.17;;;10.63;;
72573;SDS011;60603;52.548;13.420;2022-11-18T08:59:54;19.77;;;10.35;;
72573;SDS011;60603;52.548;13.420;2022-11-18T09:02:21;20.55;;;10.85;;
72573;SDS011;60603;52.548;13.420;2022-11-18T09:04:50;21.70;;;11.27;;
72573;SDS011;60603;52.548;13.420;2022-11-18T09:07:17;26.38;;;10.65;;
72573;SDS011;60603;52.548;13.420;2022-11-18T09:09:43;19.38;;;10.18;;
72573;SDS011;60603;52.548;13.420;2022-11-18T09:12:09;18.45;;;9.52;;
72573;SDS011;60603;52.548;13.420;2022-11-18T09:14:45;17.75;;;9.85;;
72573;SDS011;60603;52.548;13.420;2022-11-18T09:17:11;19.55;;;9.38;;
72573;SDS011;60603;52.548;13.420;2022-11-18T09:19:38;21.42;;;10.38;;
72573;SDS011;60603;52.548;13.420;2022-11-18T09:22:05;21.35;;;9.85;;
72573;SDS011;60603;52.548;13.420;2022-11-18T09:24:31;21.85;;;10.63;;
72573;SDS011;60603;52.548;13.420;2022-11-18T09:26:57;20.80;;;9.70;;
72573;SDS011;60603;52.548;13.420;2022-11-18T09:29:23;21.02;;;10.40;;
72573;SDS011;60603;52.548;13.420;2022-11-18T09:31:52;19.63;;;9.13;;
72573;SDS011;60603;52.548;13.420;2022-11-18T09:34:18;12.48;;;5.40;;
72573;SDS011;60603;52.548;13.420;2022-11-18T09:36:44;18.25;;;10.90;;
72573;SDS011;60603;52.548;13.420;2022-11-18T09:39:10;19.52;;;9.20;;
72573;SDS011;60603;52.548;13.420;2022-11-18T09:51:55;15.35;;;7.53;;
72573;SDS011;60603;52.548;13.420;2022-11-18T09:54:23;12.63;;;5.60;;
72573;SDS011;60603;52.548;13.420;2022-11-18T09:56:51;13.63;;;6.97;;
72573;SDS011;60603;52.548;13.420;2022-11-18T09:59:19;16.27;;;6.95;;
72573;SDS011;60603;52.548;13.420;2022-11-18T10:01:46;10.48;;;5.72;;
72573;SDS011;60603;52.548;13.420;2022-11-18T10:04:14;11.02;;;6.28;;
72573;SDS011;60603;52.548;13.420;2022-11-18T10:06:42;12.48;;;5.97;;
72573;SDS011;60603;52.548;13.420;2022-11-18T10:12:03;10.43;;;5.88;;
72573;SDS011;60603;52.548;13.420;2022-11-18T10:25:47;10.25;;;5.57;;
72573;SDS011;60603;52.548;13.420;2022-11-18T10:28:17;12.05;;;5.22;;
72573;SDS011;60603;52.548;13.420;2022-11-18T10:30:47;10.38;;;4.78;;
72573;SDS011;60603;52.548;13.420;2022-11-18T10:33:26;8.05;;;4.47;;
72573;SDS011;60603;52.548;13.420;2022-11-18T10:38:42;10.43;;;4.85;;
72573;SDS011;60603;52.548;13.420;2022-11-18T10:41:13;9.02;;;4.80;;
72573;SDS011;60603;52.548;13.420;2022-11-18T10:43:44;10.93;;;5.43;;
72573;SDS011;60603;52.548;13.420;2022-11-18T10:49:14;8.65;;;4.68;;
72573;SDS011;60603;52.548;13.420;2022-11-18T10:51:42;11.32;;;5.40;;
72573;SDS011;60603;52.548;13.420;2022-11-18T10:54:17;9.82;;;4.45;;
72573;SDS011;60603;52.548;13.420;2022-11-18T10:56:52;11.00;;;4.75;;
72573;SDS011;60603;52.548;13.420;2022-11-18T11:02:18;10.05;;;5.50;;
72573;SDS011;60603;52.548;13.420;2022-11-18T11:04:48;10.07;;;5.10;;
72573;SDS011;60603;52.548;13.420;2022-11-18T11:09:44;10.43;;;5.15;;
72573;SDS011;60603;52.548;13.420;2022-11-18T11:12:24;9.00;;;3.30;;
72573;SDS011;60603;52.548;13.420;2022-11-18T11:14:52;12.90;;;5.40;;
72573;SDS011;60603;52.548;13.420;2022-11-18T11:17:21;10.30;;;5.35;;
72573;SDS011;60603;52.548;13.420;2022-11-18T11:22:28;12.68;;;6.20;;
72573;SDS011;60603;52.548;13.420;2022-11-18T11:24:54;12.25;;;5.63;;
72573;SDS011;60603;52.548;13.420;2022-11-18T11:35:28;12.20;;;5.60;;
72573;SDS011;60603;52.548;13.420;2022-11-18T11:37:59;11.13;;;5.82;;
72573;SDS011;60603;52.548;13.420;2022-11-18T11:40:40;10.95;;;5.63;;
72573;SDS011;60603;52.548;13.420;2022-11-18T11:43:21;10.40;;;5.55;;
72573;SDS011;60603;52.548;13.420;2022-11-18T11:46:03;11.45;;;5.22;;
72573;SDS011;60603;52.548;13.420;2022-11-18T11:51:47;8.13;;;4.22;;
72573;SDS011;60603;52.548;13.420;2022-11-18T11:56:46;10.40;;;5.45;;
72573;SDS011;60603;52.548;13.420;2022-11-18T11:59:27;12.35;;;5.95;;
72573;SDS011;60603;52.548;13.420;2022-11-18T12:05:01;9.32;;;5.53;;
72573;SDS011;60603;52.548;13.420;2022-11-18T12:07:37;11.93;;;5.82;;
72573;SDS011;60603;52.548;13.420;2022-11-18T12:12:53;10.65;;;5.20;;
72573;SDS011;60603;52.548;13.420;2022-11-18T12:20:49;10.32;;;5.05;;
72573;SDS011;60603;52.548;13.420;2022-11-18T12:23:20;10.65;;;5.53;;
72573;SDS011;60603;52.548;13.420;2022-11-18T12:28:23;10.98;;;4.80;;
72573;SDS011;60603;52.548;13.420;2022-11-18T12:33:44;10.02;;;5.30;;
72573;SDS011;60603;52.548;13.420;2022-11-18T12:36:32;8.90;;;4.35;;
72573;SDS011;60603;52.548;13.420;2022-11-18T12:41:57;10.02;;;4.60;;
72573;SDS011;60603;52.548;13.420;2022-11-18T12:44:48;9.85;;;4.65;;
72573;SDS011;60603;52.548;13.420;2022-11-18T12:50:11;8.40;;;4.28;;
72573;SDS011;60603;52.548;13.420;2022-11-18T12:55:15;9.35;;;4.65;;
72573;SDS011;60603;52.548;13.420;2022-11-18T12:57:43;9.32;;;4.00;;
72573;SDS011;60603;52.548;13.420;2022-11-18T13:02:51;7.65;;;4.13;;
72573;SDS011;60603;52.548;13.420;2022-11-18T13:05:19;9.70;;;4.32;;
72573;SDS011;60603;52.548;13.420;2022-11-18T13:07:48;11.48;;;4.28;;
72573;SDS011;60603;52.548;13.420;2022-11-18T13:10:33;7.30;;;3.95;;
72573;SDS011;60603;52.548;13.420;2022-11-18T13:13:01;10.68;;;4.20;;
72573;SDS011;60603;52.548;13.420;2022-11-18T13:15:27;8.25;;;4.22;;
72573;SDS011;60603;52.548;13.420;2022-11-18T13:18:13;7.35;;;3.55;;
72573;SDS011;60603;52.548;13.420;2022-11-18T13:20:45;9.15;;;4.47;;
72573;SDS011;60603;52.548;13.420;2022-11-18T13:28:56;12.02;;;5.45;;
72573;SDS011;60603;52.548;13.420;2022-11-18T13:34:22;9.00;;;4.13;;
72573;SDS011;60603;52.548;13.420;2022-11-18T13:36:53;8.10;;;4.13;;
72573;SDS011;60603;52.548;13.420;2022-11-18T13:39:21;9.63;;;4.93;;
72573;SDS011;60603;52.548;13.420;2022-11-18T13:42:03;8.25;;;3.90;;
72573;SDS011;60603;52.548;13.420;2022-11-18T13:44:38;10.60;;;4.93;;
72573;SDS011;60603;52.548;13.420;2022-11-18T13:55:22;8.25;;;3.60;;
72573;SDS011;60603;52.548;13.420;2022-11-18T13:57:51;8.40;;;4.30;;
72573;SDS011;60603;52.548;13.420;2022-11-18T14:00:22;5.70;;;2.90;;
72573;SDS011;60603;52.548;13.420;2022-11-18T14:02:52;9.23;;;4.38;;
72573;SDS011;60603;52.548;13.420;2022-11-18T14:05:20;8.45;;;4.00;;
72573;SDS011;60603;52.548;13.420;2022-11-18T14:10:29;7.90;;;4.25;;
72573;SDS011;60603;52.548;13.420;2022-11-18T14:13:22;7.50;;;3.58;;
72573;SDS011;60603;52.548;13.420;2022-11-18T14:15:51;6.78;;;3.40;;
72573;SDS011;60603;52.548;13.420;2022-11-18T14:18:34;8.57;;;3.75;;
72573;SDS011;60603;52.548;13.420;2022-11-18T14:21:02;5.40;;;2.63;;
72573;SDS011;60603;52.548;13.420;2022-11-18T14:23:30;5.82;;;3.38;;
72573;SDS011;60603;52.548;13.420;2022-11-18T14:26:01;6.30;;;3.38;;
72573;SDS011;60603;52.548;13.420;2022-11-18T14:28:30;6.72;;;3.33;;
72573;SDS011;60603;52.548;13.420;2022-11-18T14:30:59;5.88;;;2.83;;
72573;SDS011;60603;52.548;13.420;2022-11-18T14:33:27;6.78;;;3.40;;
72573;SDS011;60603;52.548;13.420;2022-11-18T14:35:57;7.30;;;3.10;;
72573;SDS011;60603;52.548;13.420;2022-11-18T14:38:48;6.32;;;3.00;;
72573;SDS011;60603;52.548;13.420;2022-11-18T14:41:18;6.07;;;3.25;;
72573;SDS011;60603;52.548;13.420;2022-11-18T14:44:04;6.35;;;3.40;;
72573;SDS011;60603;52.548;13.420;2022-11-18T14:46:30;7.15;;;3.28;;
72573;SDS011;60603;52.548;13.420;2022-11-18T14:48:56;6.65;;;2.92;;
72573;SDS011;60603;52.548;13.420;2022-11-18T14:51:22;5.43;;;3.05;;
72573;SDS011;60603;52.548;13.420;2022-11-18T14:53:49;5.50;;;2.95;;
72573;SDS011;60603;52.548;13.420;2022-11-18T14:56:25;7.10;;;3.17;;
72573;SDS011;60603;52.548;13.420;2022-11-18T14:58:53;6.72;;;3.17;;
72573;SDS011;60603;52.548;13.420;2022-11-18T15:01:19;5.80;;;3.20;;
72573;SDS011;60603;52.548;13.420;2022-11-18T15:03:45;5.93;;;3.10;;
72573;SDS011;60603;52.548;13.420;2022-11-18T15:06:12;7.50;;;3.20;;
72573;SDS011;60603;52.548;13.420;2022-11-18T15:08:39;6.70;;;3.13;;
72573;SDS011;60603;52.548;13.420;2022-11-18T15:11:05;6.80;;;3.22;;
72573;SDS011;60603;52.548;13.420;2022-11-18T15:13:31;4.78;;;2.83;;
72573;SDS011;60603;52.548;13.420;2022-11-18T15:15:57;6.18;;;3.10;;
72573;SDS011;60603;52.548;13.420;2022-11-18T15:18:23;6.45;;;3.00;;
72573;SDS011;60603;52.548;13.420;2022-11-18T15:20:49;6.55;;;3.28;;
72573;SDS011;60603;52.548;13.420;2022-11-18T15:23:16;6.07;;;3.15;;
72573;SDS011;60603;52.548;13.420;2022-11-18T15:25:42;6.78;;;3.53;;
72573;SDS011;60603;52.548;13.420;2022-11-18T15:28:11;6.85;;;3.05;;
72573;SDS011;60603;52.548;13.420;2022-11-18T15:30:37;6.88;;;3.20;;
72573;SDS011;60603;52.548;13.420;2022-11-18T15:33:03;8.38;;;3.58;;
72573;SDS011;60603;52.548;13.420;2022-11-18T15:35:28;6.68;;;3.50;;
72573;SDS011;60603;52.548;13.420;2022-11-18T15:37:54;7.03;;;3.50;;
72573;SDS011;60603;52.548;13.420;2022-11-18T15:40:20;7.22;;;3.00;;
72573;SDS011;60603;52.548;13.420;2022-11-18T15:42:46;7.60;;;3.42;;
72573;SDS011;60603;52.548;13.420;2022-11-18T15:45:11;7.35;;;3.75;;
72573;SDS011;60603;52.548;13.420;2022-11-18T15:47:38;7.93;;;4.20;;
72573;SDS011;60603;52.548;13.420;2022-11-18T15:50:03;7.82;;;4.30;;
72573;SDS011;60603;52.548;13.420;2022-11-18T15:52:30;8.48;;;4.25;;
72573;SDS011;60603;52.548;13.420;2022-11-18T15:54:55;8.13;;;4.10;;
72573;SDS011;60603;52.548;13.420;2022-11-18T15:57:21;7.03;;;4.03;;
72573;SDS011;60603;52.548;13.420;2022-11-18T15:59:47;9.80;;;3.80;;
72573;SDS011;60603;52.548;13.420;2022-11-18T16:02:13;7.63;;;3.83;;
72573;SDS011;60603;52.548;13.420;2022-11-18T16:04:39;8.35;;;3.88;;
72573;SDS011;60603;52.548;13.420;2022-11-18T16:07:05;8.48;;;3.90;;
72573;SDS011;60603;52.548;13.420;2022-11-18T16:09:30;8.85;;;3.97;;
72573;SDS011;60603;52.548;13.420;2022-11-18T16:12:15;9.15;;;4.13;;
72573;SDS011;60603;52.548;13.420;2022-11-18T16:14:59;8.52;;;4.55;;
72573;SDS011;60603;52.548;13.420;2022-11-18T16:17:44;9.52;;;4.35;;
72573;SDS011;60603;52.548;13.420;2022-11-18T16:20:10;8.57;;;3.67;;
72573;SDS011;60603;52.548;13.420;2022-11-18T16:22:36;8.18;;;4.20;;
72573;SDS011;60603;52.548;13.420;2022-11-18T16:25:02;8.07;;;4.20;;
72573;SDS011;60603;52.548;13.420;2022-11-18T16:27:28;8.07;;;4.40;;
72573;SDS011;60603;52.548;13.420;2022-11-18T16:29:54;8.50;;;4.28;;
72573;SDS011;60603;52.548;13.420;2022-11-18T16:32:20;10.35;;;4.70;;
72573;SDS011;60603;52.548;13.420;2022-11-18T16:34:46;9.75;;;4.72;;
72573;SDS011;60603;52.548;13.420;2022-11-18T16:37:12;12.27;;;4.95;;
72573;SDS011;60603;52.548;13.420;2022-11-18T16:39:37;14.35;;;6.55;;
72573;SDS011;60603;52.548;13.420;2022-11-18T16:42:03;11.73;;;5.53;;
72573;SDS011;60603;52.548;13.420;2022-11-18T16:44:29;13.90;;;6.45;;
72573;SDS011;60603;52.548;13.420;2022-11-18T16:46:55;17.90;;;7.68;;
72573;SDS011;60603;52.548;13.420;2022-11-18T16:49:23;16.20;;;7.45;;
72573;SDS011;60603;52.548;13.420;2022-11-18T16:51:51;15.50;;;6.93;;
72573;SDS011;60603;52.548;13.420;2022-11-18T16:54:19;18.85;;;7.15;;